sensor_id;sensor_type;location;lat;lon;timestamp;P1;P2;P0
73517;PMS5003;61766;60.318;25.044;2023-10-09T00:00:33;0;0;
73517;PMS5003;61766;60.318;25.044;2023-10-09T00:02:58;0;0;
73517;PMS5003;61766;60.318;25.044;2023-10-09T00:05:23;0;0;
73517;PMS5003;61766;60.318;25.044;2023-10-09T00:07:48;0;0;
73517;PMS5003;61766;60.318;25.044;2023-10-09T00:10:13;0;0;
73517;PMS5003;61766;60.318;25.044;2023-10-09T00:12:38;0;0;
73517;PMS5003;61766;60.318;25.044;2023-10-09T00:15:04;1;1;
73517;PMS5003;61766;60.318;25.044;2023-10-09T00:17:29;1;1;
73517;PMS5003;61766;60.318;25.044;2023-10-09T00:19:54;0;0;
73517;PMS5003;61766;60.318;25.044;2023-10-09T00:22:19;1;0;
73517;PMS5003;61766;60.318;25.044;2023-10-09T00:24:44;1;0;
73517;PMS5003;61766;60.318;25.044;2023-10-09T00:27:10;0;0;
73517;PMS5003;61766;60.318;25.044;2023-10-09T00:29:35;0;0;
73517;PMS5003;61766;60.318;25.044;2023-10-09T00:32:00;0;0;
73517;PMS5003;61766;60.318;25.044;2023-10-09T00:34:25;1;1;
73517;PMS5003;61766;60.318;25.044;2023-10-09T00:36:50;0;0;
73517;PMS5003;61766;60.318;25.044;2023-10-09T00:39:15;0;0;
73517;PMS5003;61766;60.318;25.044;2023-10-09T00:41:41;0;0;
73517;PMS5003;61766;60.318;25.044;2023-10-09T00:44:06;1;0;
73517;PMS5003;61766;60.318;25.044;2023-10-09T00:46:31;1;1;
73517;PMS5003;61766;60.318;25.044;2023-10-09T00:48:57;0;0;
73517;PMS5003;61766;60.318;25.044;2023-10-09T00:51:22;0;0;
73517;PMS5003;61766;60.318;25.044;2023-10-09T00:53:47;0;0;
73517;PMS5003;61766;60.318;25.044;2023-10-09T00:56:12;0;0;
73517;PMS5003;61766;60.318;25.044;2023-10-09T00:58:37;1;1;
73517;PMS5003;61766;60.318;25.044;2023-10-09T01:01:02;0;0;
73517;PMS5003;61766;60.318;25.044;2023-10-09T01:03:30;0;0;
73517;PMS5003;61766;60.318;25.044;2023-10-09T01:05:54;0;0;
73517;PMS5003;61766;60.318;25.044;2023-10-09T01:08:18;1;1;
73517;PMS5003;61766;60.318;25.044;2023-10-09T01:10:44;0;0;
73517;PMS5003;61766;60.318;25.044;2023-10-09T01:13:08;0;0;
73517;PMS5003;61766;60.318;25.044;2023-10-09T01:15:34;1;1;
73517;PMS5003;61766;60.318;25.044;2023-10-09T01:17:59;0;0;
73517;PMS5003;61766;60.318;25.044;2023-10-09T01:20:24;1;1;
73517;PMS5003;61766;60.318;25.044;2023-10-09T01:22:49;2;1;
73517;PMS5003;61766;60.318;25.044;2023-10-09T01:25:14;0;0;
73517;PMS5003;61766;60.318;25.044;2023-10-09T01:27:39;0;0;
73517;PMS5003;61766;60.318;25.044;2023-10-09T01:30:05;1;1;
73517;PMS5003;61766;60.318;25.044;2023-10-09T01:32:30;0;0;
73517;PMS5003;61766;60.318;25.044;2023-10-09T01:34:55;0;0;
73517;PMS5003;61766;60.318;25.044;2023-10-09T01:37:21;1;1;
73517;PMS5003;61766;60.318;25.044;2023-10-09T01:39:45;0;0;
73517;PMS5003;61766;60.318;25.044;2023-10-09T01:42:11;2;2;
73517;PMS5003;61766;60.318;25.044;2023-10-09T01:44:36;1;1;
73517;PMS5003;61766;60.318;25.044;2023-10-09T01:47:01;0;0;
73517;PMS5003;61766;60.318;25.044;2023-10-09T01:49:26;1;1;
73517;PMS5003;61766;60.318;25.044;2023-10-09T01:51:51;1;1;
73517;PMS5003;61766;60.318;25.044;2023-10-09T01:54:17;0;0;
73517;PMS5003;61766;60.318;25.044;2023-10-09T01:56:42;1;1;
73517;PMS5003;61766;60.318;25.044;2023-10-09T01:59:07;1;1;
73517;PMS5003;61766;60.318;25.044;2023-10-09T02:01:32;0;0;
73517;PMS5003;61766;60.318;25.044;2023-10-09T02:03:57;1;1;
73517;PMS5003;61766;60.318;25.044;2023-10-09T02:06:23;2;2;
73517;PMS5003;61766;60.318;25.044;2023-10-09T02:08:48;0;0;
73517;PMS5003;61766;60.318;25.044;2023-10-09T02:11:13;0;0;
73517;PMS5003;61766;60.318;25.044;2023-10-09T02:13:38;1;1;
73517;PMS5003;61766;60.318;25.044;2023-10-09T02:16:03;0;0;
73517;PMS5003;61766;60.318;25.044;2023-10-09T02:18:29;1;1;
73517;PMS5003;61766;60.318;25.044;2023-10-09T02:23:19;0;0;
73517;PMS5003;61766;60.318;25.044;2023-10-09T02:25:44;0;0;
73517;PMS5003;61766;60.318;25.044;2023-10-09T02:28:10;1;1;
73517;PMS5003;61766;60.318;25.044;2023-10-09T02:30:35;1;1;
73517;PMS5003;61766;60.318;25.044;2023-10-09T02:33:00;1;1;
73517;PMS5003;61766;60.318;25.044;2023-10-09T02:35:25;1;1;
73517;PMS5003;61766;60.318;25.044;2023-10-09T02:37:50;0;0;
73517;PMS5003;61766;60.318;25.044;2023-10-09T02:40:16;1;1;
73517;PMS5003;61766;60.318;25.044;2023-10-09T02:42:41;0;0;
73517;PMS5003;61766;60.318;25.044;2023-10-09T02:45:07;0;0;
73517;PMS5003;61766;60.318;25.044;2023-10-09T02:47:31;0;0;
73517;PMS5003;61766;60.318;25.044;2023-10-09T02:49:57;1;1;
73517;PMS5003;61766;60.318;25.044;2023-10-09T02:52:22;1;1;
73517;PMS5003;61766;60.318;25.044;2023-10-09T02:54:47;0;0;
73517;PMS5003;61766;60.318;25.044;2023-10-09T02:57:12;0;0;
73517;PMS5003;61766;60.318;25.044;2023-10-09T02:59:37;0;0;
73517;PMS5003;61766;60.318;25.044;2023-10-09T03:02:02;0;0;
73517;PMS5003;61766;60.318;25.044;2023-10-09T03:04:28;0;0;
73517;PMS5003;61766;60.318;25.044;2023-10-09T03:06:53;0;0;
73517;PMS5003;61766;60.318;25.044;2023-10-09T03:09:18;0;0;
73517;PMS5003;61766;60.318;25.044;2023-10-09T03:11:44;1;1;
73517;PMS5003;61766;60.318;25.044;2023-10-09T03:14:09;1;1;
73517;PMS5003;61766;60.318;25.044;2023-10-09T03:16:34;1;0;
73517;PMS5003;61766;60.318;25.044;2023-10-09T03:18:59;1;1;
73517;PMS5003;61766;60.318;25.044;2023-10-09T03:21:24;1;1;
73517;PMS5003;61766;60.318;25.044;2023-10-09T03:23:49;1;1;
73517;PMS5003;61766;60.318;25.044;2023-10-09T03:26:15;1;1;
73517;PMS5003;61766;60.318;25.044;2023-10-09T03:28:40;1;1;
73517;PMS5003;61766;60.318;25.044;2023-10-09T03:31:05;1;1;
73517;PMS5003;61766;60.318;25.044;2023-10-09T03:33:31;1;1;
73517;PMS5003;61766;60.318;25.044;2023-10-09T03:35:56;1;1;
73517;PMS5003;61766;60.318;25.044;2023-10-09T03:38:21;2;1;
73517;PMS5003;61766;60.318;25.044;2023-10-09T03:40:46;2;2;
73517;PMS5003;61766;60.318;25.044;2023-10-09T03:43:11;2;2;
73517;PMS5003;61766;60.318;25.044;2023-10-09T03:45:37;2;2;
73517;PMS5003;61766;60.318;25.044;2023-10-09T03:48:02;3;2;
73517;PMS5003;61766;60.318;25.044;2023-10-09T03:50:27;4;3;
73517;PMS5003;61766;60.318;25.044;2023-10-09T03:52:53;3;3;
73517;PMS5003;61766;60.318;25.044;2023-10-09T03:55:18;3;3;
73517;PMS5003;61766;60.318;25.044;2023-10-09T03:57:43;3;3;
73517;PMS5003;61766;60.318;25.044;2023-10-09T04:00:09;2;2;
73517;PMS5003;61766;60.318;25.044;2023-10-09T04:02:33;4;4;
73517;PMS5003;61766;60.318;25.044;2023-10-09T04:04:59;1;1;
73517;PMS5003;61766;60.318;25.044;2023-10-09T04:07:24;4;4;
73517;PMS5003;61766;60.318;25.044;2023-10-09T04:09:50;5;4;
73517;PMS5003;61766;60.318;25.044;2023-10-09T04:12:15;6;5;
73517;PMS5003;61766;60.318;25.044;2023-10-09T04:14:40;4;4;
73517;PMS5003;61766;60.318;25.044;2023-10-09T04:17:05;4;4;
73517;PMS5003;61766;60.318;25.044;2023-10-09T04:19:31;3;3;
73517;PMS5003;61766;60.318;25.044;2023-10-09T04:21:56;2;2;
73517;PMS5003;61766;60.318;25.044;2023-10-09T04:24:21;4;4;
73517;PMS5003;61766;60.318;25.044;2023-10-09T04:26:46;4;4;
73517;PMS5003;61766;60.318;25.044;2023-10-09T04:29:12;3;3;
73517;PMS5003;61766;60.318;25.044;2023-10-09T04:31:37;3;3;
73517;PMS5003;61766;60.318;25.044;2023-10-09T04:34:03;4;4;
73517;PMS5003;61766;60.318;25.044;2023-10-09T04:36:27;3;3;
73517;PMS5003;61766;60.318;25.044;2023-10-09T04:38:53;3;3;
73517;PMS5003;61766;60.318;25.044;2023-10-09T04:41:18;3;2;
73517;PMS5003;61766;60.318;25.044;2023-10-09T04:43:43;4;2;
73517;PMS5003;61766;60.318;25.044;2023-10-09T04:46:08;3;2;
73517;PMS5003;61766;60.318;25.044;2023-10-09T04:48:34;2;2;
73517;PMS5003;61766;60.318;25.044;2023-10-09T04:50:59;3;3;
73517;PMS5003;61766;60.318;25.044;2023-10-09T04:53:24;5;5;
73517;PMS5003;61766;60.318;25.044;2023-10-09T04:55:49;2;2;
73517;PMS5003;61766;60.318;25.044;2023-10-09T04:58:15;3;2;
73517;PMS5003;61766;60.318;25.044;2023-10-09T05:00:40;4;3;
73517;PMS5003;61766;60.318;25.044;2023-10-09T05:03:05;3;2;
73517;PMS5003;61766;60.318;25.044;2023-10-09T05:05:30;3;3;
73517;PMS5003;61766;60.318;25.044;2023-10-09T05:07:56;2;2;
73517;PMS5003;61766;60.318;25.044;2023-10-09T05:10:21;4;2;
73517;PMS5003;61766;60.318;25.044;2023-10-09T05:12:46;4;3;
73517;PMS5003;61766;60.318;25.044;2023-10-09T05:15:12;3;2;
73517;PMS5003;61766;60.318;25.044;2023-10-09T05:17:37;3;3;
73517;PMS5003;61766;60.318;25.044;2023-10-09T05:20:02;4;2;
73517;PMS5003;61766;60.318;25.044;2023-10-09T05:22:27;2;2;
73517;PMS5003;61766;60.318;25.044;2023-10-09T05:24:52;1;1;
73517;PMS5003;61766;60.318;25.044;2023-10-09T05:27:18;3;3;
73517;PMS5003;61766;60.318;25.044;2023-10-09T05:29:43;3;2;
73517;PMS5003;61766;60.318;25.044;2023-10-09T05:32:09;6;5;
73517;PMS5003;61766;60.318;25.044;2023-10-09T05:34:34;3;3;
73517;PMS5003;61766;60.318;25.044;2023-10-09T05:36:59;3;3;
73517;PMS5003;61766;60.318;25.044;2023-10-09T05:39:25;5;4;
73517;PMS5003;61766;60.318;25.044;2023-10-09T05:41:50;3;3;
73517;PMS5003;61766;60.318;25.044;2023-10-09T05:44:15;4;4;
73517;PMS5003;61766;60.318;25.044;2023-10-09T05:46:40;4;4;
73517;PMS5003;61766;60.318;25.044;2023-10-09T05:49:05;5;4;
73517;PMS5003;61766;60.318;25.044;2023-10-09T05:51:31;4;3;
73517;PMS5003;61766;60.318;25.044;2023-10-09T05:53:56;4;3;
73517;PMS5003;61766;60.318;25.044;2023-10-09T05:56:21;3;3;
73517;PMS5003;61766;60.318;25.044;2023-10-09T05:58:47;2;2;
73517;PMS5003;61766;60.318;25.044;2023-10-09T06:01:12;2;2;
73517;PMS5003;61766;60.318;25.044;2023-10-09T06:03:37;4;3;
73517;PMS5003;61766;60.318;25.044;2023-10-09T06:06:02;3;2;
73517;PMS5003;61766;60.318;25.044;2023-10-09T06:08:28;2;1;
73517;PMS5003;61766;60.318;25.044;2023-10-09T06:10:53;1;1;
73517;PMS5003;61766;60.318;25.044;2023-10-09T06:13:18;2;2;
73517;PMS5003;61766;60.318;25.044;2023-10-09T06:15:43;1;1;
73517;PMS5003;61766;60.318;25.044;2023-10-09T06:18:08;2;1;
73517;PMS5003;61766;60.318;25.044;2023-10-09T06:20:34;1;1;
73517;PMS5003;61766;60.318;25.044;2023-10-09T06:22:59;1;1;
73517;PMS5003;61766;60.318;25.044;2023-10-09T06:25:24;1;1;
73517;PMS5003;61766;60.318;25.044;2023-10-09T06:27:49;2;1;
73517;PMS5003;61766;60.318;25.044;2023-10-09T06:30:14;2;2;
73517;PMS5003;61766;60.318;25.044;2023-10-09T06:32:40;1;1;
73517;PMS5003;61766;60.318;25.044;2023-10-09T06:35:05;1;1;
73517;PMS5003;61766;60.318;25.044;2023-10-09T06:37:31;1;1;
73517;PMS5003;61766;60.318;25.044;2023-10-09T06:39:56;1;1;
73517;PMS5003;61766;60.318;25.044;2023-10-09T06:42:20;1;1;
73517;PMS5003;61766;60.318;25.044;2023-10-09T06:44:46;1;1;
73517;PMS5003;61766;60.318;25.044;2023-10-09T06:47:11;2;2;
73517;PMS5003;61766;60.318;25.044;2023-10-09T06:49:36;1;1;
73517;PMS5003;61766;60.318;25.044;2023-10-09T06:52:01;2;2;
73517;PMS5003;61766;60.318;25.044;2023-10-09T06:54:26;2;2;
73517;PMS5003;61766;60.318;25.044;2023-10-09T06:56:52;2;2;
73517;PMS5003;61766;60.318;25.044;2023-10-09T06:59:17;3;3;
73517;PMS5003;61766;60.318;25.044;2023-10-09T07:01:42;4;3;
73517;PMS5003;61766;60.318;25.044;2023-10-09T07:04:07;4;4;
73517;PMS5003;61766;60.318;25.044;2023-10-09T07:06:32;4;4;
73517;PMS5003;61766;60.318;25.044;2023-10-09T07:08:58;4;4;
73517;PMS5003;61766;60.318;25.044;2023-10-09T07:11:23;4;4;
73517;PMS5003;61766;60.318;25.044;2023-10-09T07:13:48;4;4;
73517;PMS5003;61766;60.318;25.044;2023-10-09T07:16:14;7;5;
73517;PMS5003;61766;60.318;25.044;2023-10-09T07:18:39;5;5;
73517;PMS5003;61766;60.318;25.044;2023-10-09T07:21:05;6;6;
73517;PMS5003;61766;60.318;25.044;2023-10-09T07:23:30;6;6;
73517;PMS5003;61766;60.318;25.044;2023-10-09T07:28:21;8;7;
73517;PMS5003;61766;60.318;25.044;2023-10-09T07:30:46;4;4;
73517;PMS5003;61766;60.318;25.044;2023-10-09T07:33:11;6;6;
73517;PMS5003;61766;60.318;25.044;2023-10-09T07:35:37;9;6;
73517;PMS5003;61766;60.318;25.044;2023-10-09T07:38:01;5;4;
73517;PMS5003;61766;60.318;25.044;2023-10-09T07:40:27;4;3;
73517;PMS5003;61766;60.318;25.044;2023-10-09T07:42:52;2;2;
73517;PMS5003;61766;60.318;25.044;2023-10-09T07:45:17;2;1;
73517;PMS5003;61766;60.318;25.044;2023-10-09T07:47:42;1;1;
73517;PMS5003;61766;60.318;25.044;2023-10-09T07:50:07;2;2;
73517;PMS5003;61766;60.318;25.044;2023-10-09T07:52:32;2;2;
73517;PMS5003;61766;60.318;25.044;2023-10-09T07:54:57;2;2;
73517;PMS5003;61766;60.318;25.044;2023-10-09T07:57:23;4;3;
73517;PMS5003;61766;60.318;25.044;2023-10-09T07:59:48;7;5;
73517;PMS5003;61766;60.318;25.044;2023-10-09T08:02:13;9;7;
73517;PMS5003;61766;60.318;25.044;2023-10-09T08:04:38;11;9;
73517;PMS5003;61766;60.318;25.044;2023-10-09T08:07:03;10;9;
73517;PMS5003;61766;60.318;25.044;2023-10-09T08:09:28;12;11;
73517;PMS5003;61766;60.318;25.044;2023-10-09T08:11:54;11;11;
73517;PMS5003;61766;60.318;25.044;2023-10-09T08:14:20;9;8;
73517;PMS5003;61766;60.318;25.044;2023-10-09T08:16:45;7;7;
73517;PMS5003;61766;60.318;25.044;2023-10-09T08:19:10;7;6;
73517;PMS5003;61766;60.318;25.044;2023-10-09T08:21:35;6;5;
73517;PMS5003;61766;60.318;25.044;2023-10-09T08:24:00;4;4;
73517;PMS5003;61766;60.318;25.044;2023-10-09T08:26:25;4;3;
73517;PMS5003;61766;60.318;25.044;2023-10-09T08:28:51;2;2;
73517;PMS5003;61766;60.318;25.044;2023-10-09T08:31:16;2;2;
73517;PMS5003;61766;60.318;25.044;2023-10-09T08:33:41;1;1;
73517;PMS5003;61766;60.318;25.044;2023-10-09T08:36:06;2;2;
73517;PMS5003;61766;60.318;25.044;2023-10-09T08:38:31;3;1;
73517;PMS5003;61766;60.318;25.044;2023-10-09T08:40:56;1;1;
73517;PMS5003;61766;60.318;25.044;2023-10-09T08:43:21;2;2;
73517;PMS5003;61766;60.318;25.044;2023-10-09T08:45:47;1;1;
73517;PMS5003;61766;60.318;25.044;2023-10-09T08:48:12;3;3;
73517;PMS5003;61766;60.318;25.044;2023-10-09T08:50:37;0;0;
73517;PMS5003;61766;60.318;25.044;2023-10-09T08:53:02;1;1;
73517;PMS5003;61766;60.318;25.044;2023-10-09T08:55:27;3;2;
73517;PMS5003;61766;60.318;25.044;2023-10-09T08:57:52;2;2;
73517;PMS5003;61766;60.318;25.044;2023-10-09T09:00:18;0;0;
73517;PMS5003;61766;60.318;25.044;2023-10-09T09:02:43;2;2;
73517;PMS5003;61766;60.318;25.044;2023-10-09T09:07:33;3;2;
73517;PMS5003;61766;60.318;25.044;2023-10-09T09:09:58;3;2;
73517;PMS5003;61766;60.318;25.044;2023-10-09T09:12:23;2;2;
73517;PMS5003;61766;60.318;25.044;2023-10-09T09:14:48;1;0;
73517;PMS5003;61766;60.318;25.044;2023-10-09T09:17:13;2;2;
73517;PMS5003;61766;60.318;25.044;2023-10-09T09:19:38;1;1;
73517;PMS5003;61766;60.318;25.044;2023-10-09T09:22:04;0;0;
73517;PMS5003;61766;60.318;25.044;2023-10-09T09:24:28;0;0;
73517;PMS5003;61766;60.318;25.044;2023-10-09T09:26:54;0;0;
73517;PMS5003;61766;60.318;25.044;2023-10-09T09:29:19;1;1;
73517;PMS5003;61766;60.318;25.044;2023-10-09T09:31:52;1;1;
73517;PMS5003;61766;60.318;25.044;2023-10-09T09:34:09;2;2;
73517;PMS5003;61766;60.318;25.044;2023-10-09T09:36:34;3;3;
73517;PMS5003;61766;60.318;25.044;2023-10-09T09:38:59;8;8;
73517;PMS5003;61766;60.318;25.044;2023-10-09T09:41:24;2;2;
73517;PMS5003;61766;60.318;25.044;2023-10-09T09:43:51;0;0;
73517;PMS5003;61766;60.318;25.044;2023-10-09T09:46:14;0;0;
73517;PMS5003;61766;60.318;25.044;2023-10-09T09:48:39;1;1;
73517;PMS5003;61766;60.318;25.044;2023-10-09T09:51:04;5;4;
73517;PMS5003;61766;60.318;25.044;2023-10-09T09:53:29;7;7;
73517;PMS5003;61766;60.318;25.044;2023-10-09T09:55:55;5;5;
73517;PMS5003;61766;60.318;25.044;2023-10-09T09:58:20;2;2;
73517;PMS5003;61766;60.318;25.044;2023-10-09T10:00:45;3;3;
73517;PMS5003;61766;60.318;25.044;2023-10-09T10:03:10;1;1;
73517;PMS5003;61766;60.318;25.044;2023-10-09T10:05:35;0;0;
73517;PMS5003;61766;60.318;25.044;2023-10-09T10:08:00;1;1;
73517;PMS5003;61766;60.318;25.044;2023-10-09T10:12:50;0;0;
73517;PMS5003;61766;60.318;25.044;2023-10-09T10:15:15;0;0;
73517;PMS5003;61766;60.318;25.044;2023-10-09T10:20:06;1;1;
73517;PMS5003;61766;60.318;25.044;2023-10-09T10:22:32;1;1;
73517;PMS5003;61766;60.318;25.044;2023-10-09T10:24:57;0;0;
73517;PMS5003;61766;60.318;25.044;2023-10-09T10:27:25;1;1;
73517;PMS5003;61766;60.318;25.044;2023-10-09T10:32:15;0;0;
73517;PMS5003;61766;60.318;25.044;2023-10-09T10:37:07;0;0;
73517;PMS5003;61766;60.318;25.044;2023-10-09T10:39:32;1;1;
73517;PMS5003;61766;60.318;25.044;2023-10-09T10:41:58;1;1;
73517;PMS5003;61766;60.318;25.044;2023-10-09T10:44:25;1;1;
73517;PMS5003;61766;60.318;25.044;2023-10-09T10:46:50;1;1;
73517;PMS5003;61766;60.318;25.044;2023-10-09T10:49:16;0;0;
73517;PMS5003;61766;60.318;25.044;2023-10-09T10:51:42;1;1;
73517;PMS5003;61766;60.318;25.044;2023-10-09T10:54:08;0;0;
73517;PMS5003;61766;60.318;25.044;2023-10-09T10:56:37;0;0;
73517;PMS5003;61766;60.318;25.044;2023-10-09T10:58:59;0;0;
73517;PMS5003;61766;60.318;25.044;2023-10-09T11:01:29;0;0;
73517;PMS5003;61766;60.318;25.044;2023-10-09T11:03:51;0;0;
73517;PMS5003;61766;60.318;25.044;2023-10-09T11:08:44;1;1;
73517;PMS5003;61766;60.318;25.044;2023-10-09T11:11:10;0;0;
73517;PMS5003;61766;60.318;25.044;2023-10-09T11:13:34;0;0;
73517;PMS5003;61766;60.318;25.044;2023-10-09T11:16:00;0;0;
73517;PMS5003;61766;60.318;25.044;2023-10-09T11:18:26;0;0;
73517;PMS5003;61766;60.318;25.044;2023-10-09T11:20:52;0;0;
73517;PMS5003;61766;60.318;25.044;2023-10-09T11:23:17;0;0;
73517;PMS5003;61766;60.318;25.044;2023-10-09T11:25:45;0;0;
73517;PMS5003;61766;60.318;25.044;2023-10-09T11:30:35;1;0;
73517;PMS5003;61766;60.318;25.044;2023-10-09T11:33:04;1;1;
73517;PMS5003;61766;60.318;25.044;2023-10-09T11:35:27;0;0;
73517;PMS5003;61766;60.318;25.044;2023-10-09T11:37:56;0;0;
73517;PMS5003;61766;60.318;25.044;2023-10-09T11:40:27;0;0;
73517;PMS5003;61766;60.318;25.044;2023-10-09T11:42:44;1;1;
73517;PMS5003;61766;60.318;25.044;2023-10-09T11:47:36;0;0;
73517;PMS5003;61766;60.318;25.044;2023-10-09T11:50:02;2;1;
73517;PMS5003;61766;60.318;25.044;2023-10-09T11:52:28;0;0;
73517;PMS5003;61766;60.318;25.044;2023-10-09T11:54:53;0;0;
73517;PMS5003;61766;60.318;25.044;2023-10-09T11:57:19;0;0;
73517;PMS5003;61766;60.318;25.044;2023-10-09T11:59:45;1;1;
73517;PMS5003;61766;60.318;25.044;2023-10-09T12:02:11;0;0;
73517;PMS5003;61766;60.318;25.044;2023-10-09T12:04:37;1;1;
73517;PMS5003;61766;60.318;25.044;2023-10-09T12:07:02;0;0;
73517;PMS5003;61766;60.318;25.044;2023-10-09T12:09:28;0;0;
73517;PMS5003;61766;60.318;25.044;2023-10-09T12:11:54;1;0;
73517;PMS5003;61766;60.318;25.044;2023-10-09T12:14:20;1;1;
73517;PMS5003;61766;60.318;25.044;2023-10-09T12:16:46;0;0;
73517;PMS5003;61766;60.318;25.044;2023-10-09T12:19:12;0;0;
73517;PMS5003;61766;60.318;25.044;2023-10-09T12:21:37;0;0;
73517;PMS5003;61766;60.318;25.044;2023-10-09T12:24:03;1;1;
73517;PMS5003;61766;60.318;25.044;2023-10-09T12:26:29;1;1;
73517;PMS5003;61766;60.318;25.044;2023-10-09T12:28:55;0;0;
73517;PMS5003;61766;60.318;25.044;2023-10-09T12:31:21;0;0;
73517;PMS5003;61766;60.318;25.044;2023-10-09T12:33:46;0;0;
73517;PMS5003;61766;60.318;25.044;2023-10-09T12:36:13;1;1;
73517;PMS5003;61766;60.318;25.044;2023-10-09T12:38:38;0;0;
73517;PMS5003;61766;60.318;25.044;2023-10-09T12:41:04;0;0;
73517;PMS5003;61766;60.318;25.044;2023-10-09T12:43:30;0;0;
73517;PMS5003;61766;60.318;25.044;2023-10-09T12:45:56;1;0;
73517;PMS5003;61766;60.318;25.044;2023-10-09T12:48:21;0;0;
73517;PMS5003;61766;60.318;25.044;2023-10-09T12:50:49;2;2;
73517;PMS5003;61766;60.318;25.044;2023-10-09T12:53:13;1;1;
73517;PMS5003;61766;60.318;25.044;2023-10-09T12:55:40;0;0;
73517;PMS5003;61766;60.318;25.044;2023-10-09T12:58:05;1;1;
73517;PMS5003;61766;60.318;25.044;2023-10-09T13:00:30;0;0;
73517;PMS5003;61766;60.318;25.044;2023-10-09T13:02:56;1;1;
73517;PMS5003;61766;60.318;25.044;2023-10-09T13:05:22;2;1;
73517;PMS5003;61766;60.318;25.044;2023-10-09T13:07:48;1;1;
73517;PMS5003;61766;60.318;25.044;2023-10-09T13:10:14;2;2;
73517;PMS5003;61766;60.318;25.044;2023-10-09T13:12:40;1;1;
73517;PMS5003;61766;60.318;25.044;2023-10-09T13:15:06;0;0;
73517;PMS5003;61766;60.318;25.044;2023-10-09T13:17:31;0;0;
73517;PMS5003;61766;60.318;25.044;2023-10-09T13:19:57;0;0;
73517;PMS5003;61766;60.318;25.044;2023-10-09T13:22:23;0;0;
73517;PMS5003;61766;60.318;25.044;2023-10-09T13:24:49;0;0;
73517;PMS5003;61766;60.318;25.044;2023-10-09T13:27:14;0;0;
73517;PMS5003;61766;60.318;25.044;2023-10-09T13:29:40;1;1;
73517;PMS5003;61766;60.318;25.044;2023-10-09T13:32:06;1;1;
73517;PMS5003;61766;60.318;25.044;2023-10-09T13:34:32;0;0;
73517;PMS5003;61766;60.318;25.044;2023-10-09T13:36:57;1;0;
73517;PMS5003;61766;60.318;25.044;2023-10-09T13:39:23;0;0;
73517;PMS5003;61766;60.318;25.044;2023-10-09T13:41:50;1;1;
73517;PMS5003;61766;60.318;25.044;2023-10-09T13:44:15;0;0;
73517;PMS5003;61766;60.318;25.044;2023-10-09T13:46:41;0;0;
73517;PMS5003;61766;60.318;25.044;2023-10-09T13:49:07;0;0;
73517;PMS5003;61766;60.318;25.044;2023-10-09T13:51:33;0;0;
73517;PMS5003;61766;60.318;25.044;2023-10-09T13:53:59;1;1;
73517;PMS5003;61766;60.318;25.044;2023-10-09T13:56:24;1;1;
73517;PMS5003;61766;60.318;25.044;2023-10-09T13:58:51;1;1;
73517;PMS5003;61766;60.318;25.044;2023-10-09T14:01:16;1;1;
73517;PMS5003;61766;60.318;25.044;2023-10-09T14:03:42;1;1;
73517;PMS5003;61766;60.318;25.044;2023-10-09T14:06:08;1;1;
73517;PMS5003;61766;60.318;25.044;2023-10-09T14:08:34;0;0;
73517;PMS5003;61766;60.318;25.044;2023-10-09T14:10:59;0;0;
73517;PMS5003;61766;60.318;25.044;2023-10-09T14:13:25;2;1;
73517;PMS5003;61766;60.318;25.044;2023-10-09T14:15:52;1;1;
73517;PMS5003;61766;60.318;25.044;2023-10-09T14:18:17;2;2;
73517;PMS5003;61766;60.318;25.044;2023-10-09T14:20:43;0;0;
73517;PMS5003;61766;60.318;25.044;2023-10-09T14:23:09;3;3;
73517;PMS5003;61766;60.318;25.044;2023-10-09T14:25:35;3;3;
73517;PMS5003;61766;60.318;25.044;2023-10-09T14:27:59;0;0;
73517;PMS5003;61766;60.318;25.044;2023-10-09T14:30:25;2;2;
73517;PMS5003;61766;60.318;25.044;2023-10-09T14:32:49;0;0;
73517;PMS5003;61766;60.318;25.044;2023-10-09T14:35:15;0;0;
73517;PMS5003;61766;60.318;25.044;2023-10-09T14:37:41;0;0;
73517;PMS5003;61766;60.318;25.044;2023-10-09T14:40:06;0;0;
73517;PMS5003;61766;60.318;25.044;2023-10-09T14:42:31;0;0;
73517;PMS5003;61766;60.318;25.044;2023-10-09T14:44:56;1;1;
73517;PMS5003;61766;60.318;25.044;2023-10-09T14:47:21;1;1;
73517;PMS5003;61766;60.318;25.044;2023-10-09T14:49:46;2;2;
73517;PMS5003;61766;60.318;25.044;2023-10-09T14:52:11;2;2;
73517;PMS5003;61766;60.318;25.044;2023-10-09T14:54:36;5;4;
73517;PMS5003;61766;60.318;25.044;2023-10-09T14:57:01;1;0;
73517;PMS5003;61766;60.318;25.044;2023-10-09T14:59:26;0;0;
73517;PMS5003;61766;60.318;25.044;2023-10-09T15:01:51;1;1;
73517;PMS5003;61766;60.318;25.044;2023-10-09T15:04:16;1;1;
73517;PMS5003;61766;60.318;25.044;2023-10-09T15:06:41;2;2;
73517;PMS5003;61766;60.318;25.044;2023-10-09T15:09:07;1;1;
73517;PMS5003;61766;60.318;25.044;2023-10-09T15:11:31;3;2;
73517;PMS5003;61766;60.318;25.044;2023-10-09T15:13:57;4;4;
73517;PMS5003;61766;60.318;25.044;2023-10-09T15:16:22;4;4;
73517;PMS5003;61766;60.318;25.044;2023-10-09T15:18:47;5;5;
73517;PMS5003;61766;60.318;25.044;2023-10-09T15:21:12;5;5;
73517;PMS5003;61766;60.318;25.044;2023-10-09T15:23:37;8;7;
73517;PMS5003;61766;60.318;25.044;2023-10-09T15:26:02;6;6;
73517;PMS5003;61766;60.318;25.044;2023-10-09T15:28:27;9;9;
73517;PMS5003;61766;60.318;25.044;2023-10-09T15:30:53;7;6;
73517;PMS5003;61766;60.318;25.044;2023-10-09T15:33:17;8;8;
73517;PMS5003;61766;60.318;25.044;2023-10-09T15:35:43;9;7;
73517;PMS5003;61766;60.318;25.044;2023-10-09T15:38:08;9;8;
73517;PMS5003;61766;60.318;25.044;2023-10-09T15:40:33;6;6;
73517;PMS5003;61766;60.318;25.044;2023-10-09T15:42:58;6;6;
73517;PMS5003;61766;60.318;25.044;2023-10-09T15:45:23;6;6;
73517;PMS5003;61766;60.318;25.044;2023-10-09T15:47:48;6;5;
73517;PMS5003;61766;60.318;25.044;2023-10-09T15:50:13;8;7;
73517;PMS5003;61766;60.318;25.044;2023-10-09T15:52:38;4;4;
73517;PMS5003;61766;60.318;25.044;2023-10-09T15:55:04;5;5;
73517;PMS5003;61766;60.318;25.044;2023-10-09T15:57:29;5;5;
73517;PMS5003;61766;60.318;25.044;2023-10-09T15:59:54;14;13;
73517;PMS5003;61766;60.318;25.044;2023-10-09T16:02:19;18;17;
73517;PMS5003;61766;60.318;25.044;2023-10-09T16:04:45;16;14;
73517;PMS5003;61766;60.318;25.044;2023-10-09T16:07:10;14;14;
73517;PMS5003;61766;60.318;25.044;2023-10-09T16:09:35;13;13;
73517;PMS5003;61766;60.318;25.044;2023-10-09T16:12:00;19;19;
73517;PMS5003;61766;60.318;25.044;2023-10-09T16:14:26;28;27;
73517;PMS5003;61766;60.318;25.044;2023-10-09T16:16:51;29;29;
73517;PMS5003;61766;60.318;25.044;2023-10-09T16:19:17;36;35;
73517;PMS5003;61766;60.318;25.044;2023-10-09T16:21:42;28;27;
73517;PMS5003;61766;60.318;25.044;2023-10-09T16:24:08;18;18;
73517;PMS5003;61766;60.318;25.044;2023-10-09T16:26:33;14;13;
73517;PMS5003;61766;60.318;25.044;2023-10-09T16:28:58;11;11;
73517;PMS5003;61766;60.318;25.044;2023-10-09T16:31:24;8;6;
73517;PMS5003;61766;60.318;25.044;2023-10-09T16:33:49;7;7;
73517;PMS5003;61766;60.318;25.044;2023-10-09T16:36:14;7;6;
73517;PMS5003;61766;60.318;25.044;2023-10-09T16:38:39;7;7;
73517;PMS5003;61766;60.318;25.044;2023-10-09T16:41:05;7;7;
73517;PMS5003;61766;60.318;25.044;2023-10-09T16:43:30;8;7;